Time;durP1;ratioP1;P1;durP2;ratioP2;P2;SDS_P1;SDS_P2;PMS_P1;PMS_P2;Temp;Humidity;BMP_temperature;BMP_pressure;BME280_temperature;BME280_humidity;BME280_pressure;Samples;Min_cycle;Max_cycle;Signal;HPM_P1;HPM_P2
2023/06/13 00:02:17;;;;;;;3.20;2.90;;;15.60;98.00;;;;;;5052796;28;20482;-72
2023/06/13 00:04:45;;;;;;;3.50;2.90;;;15.60;98.00;;;;;;5053183;28;20471;-70
2023/06/13 00:07:12;;;;;;;3.27;2.93;;;15.50;98.30;;;;;;5053106;28;20892;-72
2023/06/13 00:09:39;;;;;;;3.73;2.83;;;15.50;98.40;;;;;;5052708;28;20486;-71
2023/06/13 00:12:09;;;;;;;4.90;3.07;;;15.50;98.40;;;;;;5052667;28;20455;-72
2023/06/13 00:14:36;;;;;;;3.07;2.77;;;15.50;97.50;;;;;;5057159;28;20472;-71
2023/06/13 00:17:03;;;;;;;3.50;3.00;;;15.50;96.90;;;;;;5064403;28;20486;-72
2023/06/13 00:19:30;;;;;;;4.10;3.17;;;15.50;97.40;;;;;;5124890;22;20861;-69
2023/06/13 00:21:58;;;;;;;3.60;3.30;;;15.50;97.70;;;;;;5044389;28;20455;-69
2023/06/13 00:24:25;;;;;;;4.50;3.23;;;15.50;98.40;;;;;;5041117;28;20456;-70
2023/06/13 00:26:51;;;;;;;3.10;2.83;;;15.50;98.40;;;;;;5032849;28;20479;-68
2023/06/13 00:29:18;;;;;;;3.30;3.00;;;15.50;98.60;;;;;;5050995;28;20475;-69
2023/06/13 00:31:47;;;;;;;4.10;3.47;;;15.50;98.50;;;;;;5052264;28;20448;-69
2023/06/13 00:34:14;;;;;;;2.83;2.60;;;15.40;98.80;;;;;;5052022;28;20465;-70
2023/06/13 00:36:44;;;;;;;4.00;3.00;;;15.40;99.00;;;;;;5052361;28;20509;-70
2023/06/13 00:39:12;;;;;;;4.50;3.33;;;15.30;98.90;;;;;;5051715;28;20483;-68
2023/06/13 00:41:39;;;;;;;5.07;3.53;;;15.30;99.40;;;;;;5051629;28;20455;-69
2023/06/13 00:44:07;;;;;;;3.30;3.00;;;15.30;99.60;;;;;;5051752;28;20456;-69
2023/06/13 00:46:35;;;;;;;4.07;3.50;;;15.20;99.40;;;;;;5052205;28;20462;-69
2023/06/13 00:49:05;;;;;;;3.10;2.90;;;15.20;99.50;;;;;;5043801;28;20476;-69
2023/06/13 00:51:35;;;;;;;3.70;3.03;;;15.10;99.30;;;;;;5031661;28;20501;-69
2023/06/13 00:54:06;;;;;;;6.63;3.20;;;15.10;99.50;;;;;;5040076;28;20499;-70
2023/06/13 00:56:36;;;;;;;3.53;2.90;;;15.00;99.50;;;;;;5051974;28;20467;-70
2023/06/13 00:59:04;;;;;;;5.33;3.30;;;15.00;99.50;;;;;;5051314;28;20515;-69
2023/06/13 01:01:31;;;;;;;3.30;2.97;;;14.90;99.70;;;;;;5051445;28;20456;-69
2023/06/13 01:03:59;;;;;;;3.83;3.20;;;14.90;99.70;;;;;;5051727;28;20463;-69
2023/06/13 01:06:28;;;;;;;5.40;3.37;;;14.90;99.70;;;;;;5051695;28;20459;-68
2023/06/13 01:08:58;;;;;;;3.73;3.37;;;14.80;99.70;;;;;;5051394;28;21050;-69
2023/06/13 01:11:33;;;;;;;3.50;3.03;;;14.70;99.90;;;;;;5050921;28;21183;-68
2023/06/13 01:14:06;;;;;;;3.10;2.60;;;14.70;99.90;;;;;;5051495;28;20506;-68
2023/06/13 01:16:40;;;;;;;3.33;3.03;;;14.60;99.90;;;;;;5051692;28;20460;-67
2023/06/13 01:19:24;;;;;;;3.30;3.00;;;14.60;99.90;;;;;;5050981;28;20490;-68
2023/06/13 01:21:56;;;;;;;4.10;3.00;;;14.60;99.90;;;;;;5050904;28;20959;-69
2023/06/13 01:24:35;;;;;;;3.47;3.17;;;14.60;99.90;;;;;;5032397;28;20460;-69
2023/06/13 01:27:05;;;;;;;3.23;2.90;;;14.50;99.90;;;;;;5031408;28;20952;-69
2023/06/13 01:29:34;;;;;;;4.00;3.30;;;14.50;99.90;;;;;;5023410;28;20472;-68
2023/06/13 01:32:04;;;;;;;3.00;2.80;;;14.40;99.90;;;;;;5030884;28;20938;-68
2023/06/13 01:34:31;;;;;;;5.33;3.23;;;14.40;99.90;;;;;;5051133;28;20464;-69
2023/06/13 01:36:58;;;;;;;4.47;3.23;;;14.30;99.90;;;;;;5051133;28;20482;-68
2023/06/13 01:39:25;;;;;;;4.20;3.10;;;14.30;99.90;;;;;;5050844;28;20490;-69
2023/06/13 01:41:52;;;;;;;3.40;3.13;;;14.20;99.90;;;;;;5050538;28;20463;-68
2023/06/13 01:44:21;;;;;;;5.03;3.47;;;14.20;99.90;;;;;;5050588;28;20451;-70
2023/06/13 01:46:55;;;;;;;3.47;3.17;;;14.20;99.90;;;;;;5050949;28;20467;-70
2023/06/13 01:49:30;;;;;;;3.20;2.70;;;14.20;99.90;;;;;;5050696;28;20507;-70
2023/06/13 01:52:07;;;;;;;3.10;2.80;;;14.10;99.90;;;;;;5050069;28;21021;-69
2023/06/13 01:54:37;;;;;;;3.80;3.50;;;14.10;99.90;;;;;;5051396;28;20551;-69
2023/06/13 01:57:07;;;;;;;2.97;2.77;;;14.10;99.90;;;;;;5050630;28;20461;-69
2023/06/13 01:59:39;;;;;;;3.53;3.20;;;14.10;99.90;;;;;;5050548;28;20479;-69
2023/06/13 02:02:07;;;;;;;3.20;2.90;;;14.10;99.90;;;;;;5050242;28;20950;-69
2023/06/13 02:04:40;;;;;;;3.73;2.80;;;14.10;99.90;;;;;;5050797;28;20558;-69
2023/06/13 02:07:08;;;;;;;4.37;3.13;;;14.10;99.90;;;;;;5050493;28;20967;-69
2023/06/13 02:09:35;;;;;;;2.87;2.60;;;14.00;99.90;;;;;;5049332;28;20480;-69
2023/06/13 02:12:02;;;;;;;3.17;2.97;;;14.00;99.90;;;;;;5049908;28;20906;-69
2023/06/13 02:14:29;;;;;;;4.57;2.70;;;14.00;99.90;;;;;;5050535;28;20833;-69
2023/06/13 02:16:59;;;;;;;3.93;3.00;;;14.00;99.90;;;;;;5050418;28;20466;-68
2023/06/13 02:19:26;;;;;;;3.97;3.13;;;14.00;99.90;;;;;;5050114;28;20483;-69
2023/06/13 02:21:53;;;;;;;4.23;3.10;;;14.10;99.90;;;;;;5049726;28;20455;-69
2023/06/13 02:24:20;;;;;;;2.77;2.53;;;14.10;99.90;;;;;;5050060;28;20470;-69
2023/06/13 02:26:47;;;;;;;3.67;3.03;;;14.20;99.90;;;;;;5050244;28;20464;-68
2023/06/13 02:29:14;;;;;;;3.53;3.23;;;14.20;99.90;;;;;;5049568;28;20483;-69
2023/06/13 02:31:42;;;;;;;3.33;3.03;;;14.20;99.90;;;;;;5049544;28;20482;-68
2023/06/13 02:34:10;;;;;;;4.70;4.20;;;14.20;99.90;;;;;;5049832;28;21009;-69
2023/06/13 02:36:37;;;;;;;3.77;3.00;;;14.30;99.90;;;;;;5022480;28;20471;-69
2023/06/13 02:39:04;;;;;;;3.27;2.57;;;14.30;99.90;;;;;;5029855;28;20504;-69
2023/06/13 02:41:30;;;;;;;4.00;3.10;;;14.30;99.90;;;;;;5040624;28;20858;-69
2023/06/13 02:43:57;;;;;;;3.83;2.97;;;14.30;99.90;;;;;;5049801;28;20482;-69
2023/06/13 02:46:24;;;;;;;11.60;2.97;;;14.30;99.90;;;;;;5049686;28;20463;-69
2023/06/13 02:48:50;;;;;;;3.33;2.77;;;14.30;99.90;;;;;;5050128;28;20518;-69
2023/06/13 02:51:19;;;;;;;4.17;3.00;;;14.30;99.60;;;;;;5049443;28;20487;-69
2023/06/13 02:53:45;;;;;;;4.43;2.80;;;14.30;99.90;;;;;;5050104;28;20491;-69
2023/06/13 02:56:12;;;;;;;3.40;2.93;;;14.30;99.90;;;;;;5041382;28;20471;-68
2023/06/13 02:58:39;;;;;;;4.70;3.00;;;14.30;99.90;;;;;;5029950;28;20566;-69
2023/06/13 03:01:06;;;;;;;3.33;2.77;;;14.30;99.90;;;;;;5029453;28;20457;-69
2023/06/13 03:03:34;;;;;;;3.10;2.80;;;14.20;99.90;;;;;;5040657;28;20467;-69
2023/06/13 03:06:02;;;;;;;3.40;2.73;;;14.20;99.90;;;;;;5049702;28;20455;-68
2023/06/13 03:08:30;;;;;;;3.63;3.13;;;14.20;99.80;;;;;;5049322;28;20514;-68
2023/06/13 03:10:57;;;;;;;2.73;2.53;;;14.10;99.90;;;;;;5049294;28;20570;-68
2023/06/13 03:13:24;;;;;;;3.30;2.20;;;14.20;99.50;;;;;;5047650;28;20882;-69
2023/06/13 03:15:51;;;;;;;2.70;2.50;;;14.20;99.80;;;;;;5035215;28;20463;-70
2023/06/13 03:18:18;;;;;;;2.70;2.50;;;14.20;99.50;;;;;;5032013;28;20548;-70
2023/06/13 03:20:46;;;;;;;3.27;2.87;;;14.20;99.50;;;;;;5030970;28;20864;-70
2023/06/13 03:23:14;;;;;;;3.57;2.80;;;14.20;99.30;;;;;;5033001;28;21215;-69
2023/06/13 03:25:43;;;;;;;3.27;2.60;;;14.20;99.30;;;;;;5033474;28;20889;-69
2023/06/13 03:28:10;;;;;;;2.60;2.40;;;14.20;99.70;;;;;;5033219;28;20833;-70
2023/06/13 03:30:37;;;;;;;3.60;3.30;;;14.20;99.50;;;;;;5032628;28;20500;-69
2023/06/13 03:33:04;;;;;;;3.23;2.60;;;14.20;99.60;;;;;;5025537;28;20457;-70
2023/06/13 03:35:31;;;;;;;2.97;2.60;;;14.20;99.60;;;;;;5027625;28;20555;-69
2023/06/13 03:37:58;;;;;;;3.63;3.33;;;14.20;99.60;;;;;;5024226;28;20462;-68
2023/06/13 03:40:25;;;;;;;3.80;2.90;;;14.30;99.90;;;;;;5027936;28;20202;-67
2023/06/13 03:42:53;;;;;;;3.23;2.93;;;14.30;99.40;;;;;;5025406;28;20464;-68
2023/06/13 03:45:20;;;;;;;3.10;2.80;;;14.30;99.90;;;;;;5021345;28;20468;-68
2023/06/13 03:47:46;;;;;;;2.60;2.20;;;14.20;99.60;;;;;;5013131;28;20599;-68
2023/06/13 03:50:13;;;;;;;2.90;2.17;;;14.20;99.60;;;;;;5018332;28;20460;-69
2023/06/13 03:52:40;;;;;;;3.53;2.80;;;14.20;99.30;;;;;;5014683;28;20484;-68
2023/06/13 03:55:08;;;;;;;3.33;2.70;;;14.20;99.40;;;;;;5015584;28;20460;-68
2023/06/13 03:57:35;;;;;;;2.80;2.40;;;14.30;99.50;;;;;;5022505;28;20524;-68
2023/06/13 04:00:04;;;;;;;2.70;2.30;;;14.30;99.80;;;;;;5026614;28;20956;-68
2023/06/13 04:02:31;;;;;;;3.43;2.70;;;14.30;99.30;;;;;;5027390;28;20543;-68
2023/06/13 04:04:58;;;;;;;3.10;2.50;;;14.30;99.90;;;;;;5024466;28;20469;-67
2023/06/13 04:07:25;;;;;;;3.20;2.80;;;14.30;99.90;;;;;;5027317;28;20878;-68
2023/06/13 04:09:51;;;;;;;3.50;2.93;;;14.30;99.90;;;;;;5027185;28;20466;-68
2023/06/13 04:12:18;;;;;;;3.33;3.03;;;14.30;99.90;;;;;;5026423;28;20484;-68
2023/06/13 04:14:45;;;;;;;2.60;2.40;;;14.30;99.50;;;;;;5027098;28;20464;-68
2023/06/13 04:17:13;;;;;;;3.40;3.10;;;14.20;99.60;;;;;;5024913;28;20464;-68
2023/06/13 04:19:40;;;;;;;3.20;2.30;;;14.20;99.40;;;;;;5026756;28;20471;-67
2023/06/13 04:22:07;;;;;;;4.20;2.30;;;14.30;99.70;;;;;;5025022;28;20456;-68
2023/06/13 04:24:33;;;;;;;4.23;2.90;;;14.30;99.40;;;;;;5026614;28;20487;-71
2023/06/13 04:27:03;;;;;;;4.07;3.67;;;14.30;99.30;;;;;;5023889;28;20515;-70
2023/06/13 04:29:30;;;;;;;3.27;2.50;;;14.30;99.30;;;;;;5034572;28;20486;-68
2023/06/13 04:31:57;;;;;;;2.90;2.70;;;14.30;99.40;;;;;;5047654;28;20533;-69
2023/06/13 04:34:25;;;;;;;4.40;2.80;;;14.40;99.00;;;;;;5039164;28;20939;-68
2023/06/13 04:36:55;;;;;;;3.03;2.70;;;14.40;98.90;;;;;;5040591;28;20467;-68
2023/06/13 04:39:24;;;;;;;2.80;2.57;;;14.40;98.70;;;;;;5042825;28;20520;-68
2023/06/13 04:41:55;;;;;;;3.10;2.80;;;14.50;98.80;;;;;;5022506;28;20456;-68
2023/06/13 04:44:25;;;;;;;2.90;2.70;;;14.50;98.50;;;;;;5020500;28;20544;-68
2023/06/13 04:46:52;;;;;;;3.10;2.60;;;14.50;98.60;;;;;;5034101;28;20463;-70
2023/06/13 04:49:18;;;;;;;3.17;2.87;;;14.60;98.50;;;;;;5040886;28;20486;-68
2023/06/13 04:51:48;;;;;;;3.23;2.70;;;14.60;98.60;;;;;;5032248;28;20479;-69
2023/06/13 04:54:15;;;;;;;2.83;2.63;;;14.70;98.60;;;;;;5041048;28;20884;-68
2023/06/13 04:56:43;;;;;;;3.03;2.83;;;14.80;98.20;;;;;;5044364;28;20468;-69
2023/06/13 04:59:10;;;;;;;3.00;2.77;;;14.80;98.40;;;;;;5044149;28;20490;-69
2023/06/13 05:01:37;;;;;;;3.43;3.13;;;14.90;98.30;;;;;;5041441;28;20456;-69
2023/06/13 05:04:04;;;;;;;7.93;2.90;;;14.90;97.90;;;;;;5040638;28;20536;-69
2023/06/13 05:06:34;;;;;;;2.80;2.23;;;15.00;98.10;;;;;;5040740;28;20932;-70
2023/06/13 05:09:02;;;;;;;2.70;2.50;;;15.10;98.20;;;;;;5040604;28;20492;-70
2023/06/13 05:11:29;;;;;;;2.87;2.40;;;15.10;97.80;;;;;;5050119;28;20483;-71
2023/06/13 05:13:55;;;;;;;2.73;2.53;;;15.10;97.80;;;;;;5044013;28;20841;-71
2023/06/13 05:16:26;;;;;;;4.03;2.70;;;15.20;97.90;;;;;;5043591;28;20464;-70
2023/06/13 05:18:57;;;;;;;3.60;2.70;;;15.30;98.10;;;;;;5045051;28;21025;-69
2023/06/13 05:21:24;;;;;;;2.80;2.37;;;15.30;98.30;;;;;;5042480;28;21013;-68
2023/06/13 05:23:51;;;;;;;2.37;2.17;;;15.30;97.30;;;;;;5036736;28;20811;-70
2023/06/13 05:26:20;;;;;;;3.17;2.70;;;15.40;97.60;;;;;;5051993;28;20463;-70
2023/06/13 05:28:47;;;;;;;4.87;2.30;;;15.40;97.50;;;;;;5032869;28;20896;-69
2023/06/13 05:31:14;;;;;;;3.40;2.60;;;15.40;97.20;;;;;;5039101;28;20553;-69
2023/06/13 05:33:41;;;;;;;3.10;2.53;;;15.50;96.80;;;;;;5032381;28;20456;-69
2023/06/13 05:36:07;;;;;;;3.10;2.80;;;15.60;97.00;;;;;;5040526;28;20463;-68
2023/06/13 05:38:36;;;;;;;2.50;2.30;;;15.60;97.20;;;;;;5040094;28;20491;-68
2023/06/13 05:41:03;;;;;;;4.17;2.67;;;15.70;97.00;;;;;;5045723;28;20463;-68
2023/06/13 05:43:31;;;;;;;2.37;2.17;;;15.70;96.50;;;;;;5042004;28;20467;-68
2023/06/13 05:45:57;;;;;;;3.17;2.87;;;15.70;95.50;;;;;;5039779;28;20460;-68
2023/06/13 05:48:24;;;;;;;2.43;2.23;;;15.70;95.60;;;;;;5040520;28;21014;-68
2023/06/13 05:50:51;;;;;;;2.53;2.33;;;15.80;95.30;;;;;;5047365;28;20464;-71
2023/06/13 05:53:17;;;;;;;2.70;2.47;;;15.80;95.00;;;;;;5039117;28;20540;-68
2023/06/13 05:55:44;;;;;;;2.50;2.30;;;15.80;94.40;;;;;;5030544;28;20792;-68
2023/06/13 05:58:11;;;;;;;3.70;2.50;;;15.80;94.20;;;;;;5050746;28;20511;-70
2023/06/13 06:00:40;;;;;;;3.90;2.60;;;15.80;94.30;;;;;;5028083;28;20549;-68
2023/06/13 06:03:06;;;;;;;3.60;2.40;;;15.90;94.00;;;;;;5029711;28;20464;-68
2023/06/13 06:05:33;;;;;;;2.13;1.90;;;15.90;93.90;;;;;;5037310;28;20475;-68
2023/06/13 06:08:00;;;;;;;2.30;2.10;;;16.00;94.00;;;;;;5049485;28;20475;-68
2023/06/13 06:10:26;;;;;;;3.30;2.73;;;16.10;93.60;;;;;;5040820;28;20464;-70
2023/06/13 06:12:53;;;;;;;3.80;2.90;;;16.10;93.30;;;;;;5028358;28;21281;-68
2023/06/13 06:15:20;;;;;;;3.63;2.30;;;16.10;93.30;;;;;;5029582;28;20840;-67
2023/06/13 06:17:50;;;;;;;2.67;2.47;;;16.10;93.70;;;;;;5029452;28;20483;-69
2023/06/13 06:20:17;;;;;;;2.47;2.27;;;16.20;93.40;;;;;;5029195;28;20464;-70
2023/06/13 06:22:44;;;;;;;2.47;2.27;;;16.30;93.10;;;;;;5029128;28;20463;-67
2023/06/13 06:25:12;;;;;;;3.20;2.40;;;16.30;93.20;;;;;;5029329;28;20469;-69
2023/06/13 06:27:39;;;;;;;3.43;2.60;;;16.40;92.50;;;;;;5028995;28;20480;-69
2023/06/13 06:30:07;;;;;;;2.57;2.13;;;16.50;92.90;;;;;;5028995;28;20468;-69
2023/06/13 06:32:33;;;;;;;2.90;2.50;;;16.60;92.60;;;;;;5029149;28;20484;-71
2023/06/13 06:35:03;;;;;;;3.20;2.50;;;16.60;92.30;;;;;;5029049;28;20461;-70
2023/06/13 06:37:30;;;;;;;2.87;2.60;;;16.60;91.90;;;;;;5029034;28;20464;-69
2023/06/13 06:39:57;;;;;;;2.50;2.23;;;16.80;92.50;;;;;;5029004;28;20472;-69
2023/06/13 06:42:23;;;;;;;3.10;2.17;;;16.90;92.30;;;;;;5028370;28;20947;-68
2023/06/13 06:44:51;;;;;;;4.30;2.47;;;16.90;91.40;;;;;;5029320;28;20461;-68
2023/06/13 06:47:17;;;;;;;4.37;2.40;;;16.90;91.50;;;;;;5029086;28;20464;-68
2023/06/13 06:49:44;;;;;;;2.67;2.20;;;17.00;91.50;;;;;;5028001;28;21019;-69
2023/06/13 06:52:12;;;;;;;3.93;2.57;;;17.00;90.90;;;;;;5028712;28;20488;-70
2023/06/13 06:54:39;;;;;;;2.80;2.40;;;17.10;91.10;;;;;;5028856;28;20471;-70
2023/06/13 06:57:06;;;;;;;2.67;2.40;;;17.20;91.80;;;;;;5028451;28;20464;-69
2023/06/13 06:59:33;;;;;;;3.47;2.37;;;17.30;91.10;;;;;;5028917;28;20538;-69
2023/06/13 07:01:59;;;;;;;5.00;2.67;;;17.30;90.70;;;;;;5028427;28;20464;-69
2023/06/13 07:04:26;;;;;;;2.37;2.17;;;17.30;90.00;;;;;;5028647;28;20473;-68
2023/06/13 07:06:53;;;;;;;3.07;2.77;;;17.30;90.50;;;;;;5029016;28;20526;-68
2023/06/13 07:09:21;;;;;;;3.83;3.00;;;17.30;90.50;;;;;;5028750;28;20484;-68
2023/06/13 07:11:48;;;;;;;3.23;2.93;;;17.40;90.60;;;;;;5028602;28;20464;-69
2023/06/13 07:14:14;;;;;;;2.93;2.63;;;17.40;89.20;;;;;;5028515;28;20641;-70
2023/06/13 07:16:41;;;;;;;2.57;2.37;;;17.50;90.50;;;;;;5028691;28;20475;-68
2023/06/13 07:19:07;;;;;;;3.33;2.73;;;17.60;90.50;;;;;;5028019;28;20484;-69
2023/06/13 07:21:34;;;;;;;4.80;2.27;;;17.70;90.00;;;;;;5028226;28;20471;-70
2023/06/13 07:24:01;;;;;;;2.57;2.07;;;17.80;90.50;;;;;;5028674;28;20460;-71
2023/06/13 07:26:29;;;;;;;3.67;3.00;;;17.80;89.70;;;;;;5027946;28;20461;-68
2023/06/13 07:28:56;;;;;;;2.63;2.30;;;17.80;90.20;;;;;;5040319;28;20540;-68
2023/06/13 07:31:23;;;;;;;2.57;2.37;;;17.90;89.70;;;;;;5047507;28;20456;-68
2023/06/13 07:33:51;;;;;;;2.37;2.17;;;18.00;90.30;;;;;;5048214;28;21197;-70
2023/06/13 07:36:19;;;;;;;3.10;2.60;;;18.20;90.40;;;;;;5048615;28;20509;-69
2023/06/13 07:38:45;;;;;;;3.20;2.40;;;18.30;89.90;;;;;;5047832;28;20571;-69
2023/06/13 07:41:12;;;;;;;2.60;2.40;;;18.40;88.70;;;;;;5048074;28;20951;-69
2023/06/13 07:43:41;;;;;;;2.60;2.40;;;18.40;89.90;;;;;;5048280;28;20459;-69
2023/06/13 07:46:07;;;;;;;2.50;2.30;;;18.40;88.50;;;;;;5048394;28;20468;-69
2023/06/13 07:48:34;;;;;;;2.70;2.50;;;18.40;88.80;;;;;;5047940;28;20478;-70
2023/06/13 07:51:01;;;;;;;2.80;2.10;;;18.40;88.70;;;;;;5048145;28;20467;-71
2023/06/13 07:53:28;;;;;;;2.50;1.90;;;18.50;86.90;;;;;;5040100;28;20484;-69
2023/06/13 07:55:55;;;;;;;2.90;2.60;;;18.60;90.00;;;;;;5028129;28;20963;-70
2023/06/13 07:58:22;;;;;;;3.93;2.13;;;18.70;87.30;;;;;;5028469;28;20476;-71
2023/06/13 08:00:50;;;;;;;2.63;2.43;;;18.70;84.20;;;;;;5027969;28;20974;-70
2023/06/13 08:03:17;;;;;;;2.93;2.63;;;18.70;86.00;;;;;;5027460;28;20464;-71
2023/06/13 08:05:43;;;;;;;3.27;2.83;;;18.80;86.80;;;;;;5028390;28;20954;-70
2023/06/13 08:08:10;;;;;;;4.50;2.53;;;18.80;86.00;;;;;;5029905;28;20865;-69
2023/06/13 08:10:37;;;;;;;5.33;2.23;;;18.90;89.40;;;;;;5031541;28;20912;-69
2023/06/13 08:13:04;;;;;;;9.23;3.17;;;19.00;88.30;;;;;;5031540;28;20512;-68
2023/06/13 08:15:30;;;;;;;2.87;2.63;;;19.10;86.00;;;;;;5031475;28;20537;-69
2023/06/13 08:17:59;;;;;;;3.40;2.50;;;19.10;87.40;;;;;;5026447;28;20541;-70
2023/06/13 08:20:25;;;;;;;5.33;2.60;;;19.20;88.30;;;;;;5031608;28;20967;-70
2023/06/13 08:25:26;;;;;;;2.97;2.40;;;19.30;84.50;;;;;;5051202;28;20500;-74
2023/06/13 08:27:53;;;;;;;2.83;2.63;;;19.40;88.80;;;;;;5052394;28;20475;-72
2023/06/13 08:30:20;;;;;;;3.30;2.53;;;19.40;86.50;;;;;;5028133;28;20884;-73
2023/06/13 08:32:47;;;;;;;3.90;2.20;;;19.60;87.40;;;;;;5050480;28;20506;-73
2023/06/13 08:35:15;;;;;;;6.23;2.93;;;19.70;85.90;;;;;;5046466;28;20515;-74
2023/06/13 08:37:42;;;;;;;4.13;2.90;;;19.80;88.30;;;;;;5032477;28;20487;-71
2023/06/13 08:40:10;;;;;;;2.43;2.23;;;20.00;86.10;;;;;;5045856;28;20869;-74
2023/06/13 08:42:37;;;;;;;3.37;2.60;;;20.00;84.30;;;;;;5052137;28;20609;-73
2023/06/13 08:45:06;;;;;;;2.47;2.27;;;20.10;86.10;;;;;;5052244;28;20470;-72
2023/06/13 08:47:33;;;;;;;2.60;2.40;;;20.10;83.80;;;;;;5051956;28;20464;-72
2023/06/13 08:50:00;;;;;;;2.53;2.33;;;20.10;82.90;;;;;;5040275;28;20714;-72
2023/06/13 08:52:35;;;;;;;2.73;2.53;;;20.20;86.90;;;;;;5040163;28;20492;-74
2023/06/13 08:55:06;;;;;;;3.00;2.70;;;20.20;86.60;;;;;;5032245;28;20462;-72
2023/06/13 08:57:33;;;;;;;3.50;2.57;;;20.40;85.20;;;;;;5031810;28;20453;-72
2023/06/13 09:00:03;;;;;;;3.73;2.33;;;20.50;87.80;;;;;;5044252;28;20467;-72
2023/06/13 09:02:31;;;;;;;4.27;2.83;;;20.60;85.20;;;;;;5051628;28;20523;-72
2023/06/13 09:04:59;;;;;;;3.07;2.43;;;20.60;81.90;;;;;;5024107;28;20501;-72
2023/06/13 09:07:26;;;;;;;2.93;2.57;;;20.60;84.20;;;;;;5047446;28;20471;-72
2023/06/13 09:09:55;;;;;;;3.27;2.47;;;20.70;89.30;;;;;;5032168;28;20642;-73
2023/06/13 09:12:22;;;;;;;4.33;2.57;;;20.90;89.00;;;;;;5030645;28;20978;-73
2023/06/13 09:14:48;;;;;;;2.63;2.27;;;21.10;90.50;;;;;;5033295;28;20468;-72
2023/06/13 09:17:17;;;;;;;3.50;2.80;;;21.20;87.20;;;;;;5041928;28;20466;-72
2023/06/13 09:19:44;;;;;;;2.30;2.20;;;21.40;89.10;;;;;;5039303;28;20458;-71
2023/06/13 09:22:11;;;;;;;2.77;2.57;;;21.70;91.50;;;;;;5036950;28;20461;-72
2023/06/13 09:24:38;;;;;;;2.90;2.47;;;21.80;87.80;;;;;;5043493;28;20467;-72
2023/06/13 09:27:08;;;;;;;3.50;3.20;;;21.90;85.00;;;;;;5037138;28;20466;-73
2023/06/13 09:29:35;;;;;;;4.00;2.80;;;21.90;83.40;;;;;;5039372;28;20861;-72
2023/06/13 09:32:03;;;;;;;3.13;2.80;;;21.90;85.10;;;;;;5050249;28;20455;-72
2023/06/13 09:34:30;;;;;;;3.77;2.67;;;21.90;84.20;;;;;;5035305;28;20494;-72
2023/06/13 09:36:59;;;;;;;2.57;2.37;;;21.80;85.60;;;;;;5031218;28;20554;-71
2023/06/13 09:39:27;;;;;;;2.60;2.40;;;21.90;86.30;;;;;;5030833;28;20488;-71
2023/06/13 09:41:55;;;;;;;3.00;2.60;;;22.10;86.90;;;;;;5030558;28;20475;-71
2023/06/13 09:44:25;;;;;;;2.50;2.20;;;22.20;85.80;;;;;;5037481;28;20951;-71
2023/06/13 09:46:53;;;;;;;2.70;2.37;;;22.40;88.80;;;;;;5050352;28;20955;-71
2023/06/13 09:49:20;;;;;;;2.50;2.30;;;22.50;84.90;;;;;;5050790;28;20476;-70
2023/06/13 09:51:46;;;;;;;2.57;2.17;;;22.60;84.10;;;;;;5032276;28;20461;-71
2023/06/13 09:54:14;;;;;;;2.73;2.50;;;22.80;85.00;;;;;;5030161;28;20904;-71
2023/06/13 09:56:42;;;;;;;2.50;2.30;;;22.90;86.10;;;;;;5030807;28;20464;-70
2023/06/13 09:59:09;;;;;;;2.73;2.50;;;23.10;87.10;;;;;;5030592;28;20509;-71
2023/06/13 10:01:38;;;;;;;3.40;2.80;;;23.10;82.40;;;;;;5030208;28;20737;-70
2023/06/13 10:04:06;;;;;;;3.70;2.60;;;23.10;81.00;;;;;;5050854;28;20489;-70
2023/06/13 10:06:32;;;;;;;2.90;2.43;;;23.00;80.60;;;;;;5050417;28;20469;-71
2023/06/13 10:08:59;;;;;;;3.50;3.00;;;23.10;85.20;;;;;;5050323;28;20491;-71
2023/06/13 10:11:30;;;;;;;4.17;2.90;;;23.20;82.70;;;;;;5049912;28;20476;-72
2023/06/13 10:14:09;;;;;;;2.80;2.60;;;23.20;80.30;;;;;;5050489;28;20846;-72
2023/06/13 10:16:40;;;;;;;2.90;2.60;;;23.20;82.60;;;;;;5050046;28;20466;-71
2023/06/13 10:19:09;;;;;;;2.70;2.50;;;23.20;82.30;;;;;;5049975;28;20505;-71
2023/06/13 10:21:38;;;;;;;3.60;2.80;;;23.40;82.90;;;;;;5049533;28;20753;-70
2023/06/13 10:24:06;;;;;;;3.13;2.60;;;23.40;84.30;;;;;;5050005;28;20462;-71
2023/06/13 10:26:37;;;;;;;2.87;2.50;;;23.50;81.80;;;;;;5050089;28;20839;-71
2023/06/13 10:29:22;;;;;;;3.93;2.33;;;23.60;82.50;;;;;;5050278;28;20511;-71
2023/06/13 10:32:00;;;;;;;5.23;2.63;;;23.60;83.40;;;;;;5026534;28;20473;-70
2023/06/13 10:34:43;;;;;;;8.53;3.20;;;23.70;84.10;;;;;;5029901;28;20482;-71
2023/06/13 10:37:28;;;;;;;3.30;2.53;;;23.80;79.00;;;;;;5029759;28;20475;-71
2023/06/13 10:40:16;;;;;;;2.77;2.57;;;23.80;80.60;;;;;;5040177;28;20983;-71
2023/06/13 10:42:48;;;;;;;2.90;2.60;;;23.90;82.20;;;;;;5049467;28;20850;-72
2023/06/13 10:45:21;;;;;;;2.90;2.70;;;24.10;81.50;;;;;;5048871;28;20838;-72
2023/06/13 10:47:50;;;;;;;3.00;2.70;;;24.20;78.30;;;;;;5031551;28;21089;-72
2023/06/13 10:50:18;;;;;;;3.50;2.80;;;24.20;77.10;;;;;;5029877;28;20811;-73
2023/06/13 10:52:48;;;;;;;3.13;2.83;;;24.10;79.70;;;;;;5046913;28;21010;-72
2023/06/13 10:55:23;;;;;;;2.70;2.50;;;24.10;79.90;;;;;;5049140;28;21027;-73
2023/06/13 10:57:51;;;;;;;2.93;2.63;;;24.20;76.50;;;;;;5049228;28;20486;-72
2023/06/13 11:00:25;;;;;;;4.57;2.93;;;24.20;82.00;;;;;;5034786;28;20470;-72
2023/06/13 11:03:00;;;;;;;2.77;2.57;;;24.30;80.00;;;;;;5049437;28;20461;-73
2023/06/13 11:05:27;;;;;;;3.23;2.73;;;24.40;77.30;;;;;;5049514;28;20515;-71
2023/06/13 11:07:55;;;;;;;3.33;3.03;;;24.40;75.50;;;;;;5039222;28;20548;-72
2023/06/13 11:10:23;;;;;;;2.80;2.60;;;24.50;76.70;;;;;;5029443;28;20464;-72
2023/06/13 11:12:53;;;;;;;3.17;2.77;;;24.60;79.20;;;;;;5039787;28;20474;-72
2023/06/13 11:15:24;;;;;;;2.80;2.60;;;24.60;77.10;;;;;;5049626;28;20788;-72
2023/06/13 11:18:28;;;;;;;3.10;2.77;;;24.60;77.70;;;;;;5049863;28;20506;-73
2023/06/13 11:20:57;;;;;;;3.30;3.00;;;24.60;79.20;;;;;;5049534;28;20469;-72
2023/06/13 11:23:38;;;;;;;5.30;3.07;;;24.90;80.40;;;;;;5034974;28;21004;-73
2023/06/13 11:26:05;;;;;;;3.10;2.80;;;24.80;75.60;;;;;;5021919;28;20829;-72
2023/06/13 11:28:32;;;;;;;2.60;2.33;;;24.80;74.50;;;;;;5038029;28;20979;-72
2023/06/13 11:31:04;;;;;;;3.07;2.77;;;24.90;73.20;;;;;;5032226;28;20521;-72
2023/06/13 11:33:34;;;;;;;3.60;2.80;;;24.80;73.10;;;;;;5049302;28;20898;-73
2023/06/13 11:36:04;;;;;;;3.03;2.40;;;24.70;76.00;;;;;;5049652;28;20899;-72
2023/06/13 11:38:35;;;;;;;3.07;2.80;;;24.70;78.80;;;;;;5041798;28;20913;-72
2023/06/13 11:41:02;;;;;;;3.00;2.80;;;24.90;79.90;;;;;;5038700;28;20468;-72
2023/06/13 11:43:30;;;;;;;2.60;2.30;;;25.00;76.50;;;;;;5041947;28;20460;-72
2023/06/13 11:45:59;;;;;;;2.47;2.27;;;25.10;72.80;;;;;;5035572;28;20551;-71
2023/06/13 11:48:27;;;;;;;2.57;2.30;;;25.10;73.60;;;;;;5053047;28;20482;-72
2023/06/13 11:51:08;;;;;;;3.30;3.03;;;25.20;73.50;;;;;;5035042;28;20547;-73
2023/06/13 11:53:50;;;;;;;2.90;2.70;;;25.10;77.40;;;;;;5033153;28;20491;-72
2023/06/13 11:56:18;;;;;;;4.50;2.87;;;25.20;78.80;;;;;;5034758;28;20464;-73
2023/06/13 11:58:46;;;;;;;2.80;2.30;;;25.40;77.50;;;;;;5033491;28;20496;-72
2023/06/13 12:01:16;;;;;;;2.90;2.70;;;25.40;77.00;;;;;;5052685;28;20481;-72
2023/06/13 12:03:44;;;;;;;4.33;2.80;;;25.40;77.50;;;;;;5036121;28;20849;-71
2023/06/13 12:06:12;;;;;;;3.03;2.60;;;25.50;79.20;;;;;;5036772;28;20463;-71
2023/06/13 12:08:45;;;;;;;2.73;2.53;;;25.70;78.80;;;;;;5052121;28;20487;-72
2023/06/13 12:11:14;;;;;;;3.70;2.90;;;25.80;76.40;;;;;;5052519;28;20465;-71
2023/06/13 12:13:41;;;;;;;3.27;2.97;;;25.90;77.70;;;;;;5044307;28;20490;-72
2023/06/13 12:16:09;;;;;;;2.53;2.33;;;26.10;77.00;;;;;;5032814;28;20463;-74
2023/06/13 12:18:37;;;;;;;3.40;3.10;;;26.10;79.40;;;;;;5032482;28;20575;-73
2023/06/13 12:21:04;;;;;;;2.97;2.77;;;26.10;76.90;;;;;;5031854;28;20465;-73
2023/06/13 12:23:33;;;;;;;2.70;2.50;;;26.20;76.90;;;;;;5040530;28;20522;-74
2023/06/13 12:26:03;;;;;;;5.47;3.20;;;26.20;78.90;;;;;;5051195;28;20460;-74
2023/06/13 12:28:30;;;;;;;3.67;3.37;;;26.30;76.80;;;;;;5052101;28;20484;-75
2023/06/13 12:31:05;;;;;;;3.93;2.80;;;26.30;73.50;;;;;;5052380;28;20691;-72
2023/06/13 12:33:35;;;;;;;3.17;2.80;;;26.40;77.60;;;;;;5051971;28;20484;-72
2023/06/13 12:36:05;;;;;;;3.00;2.70;;;26.50;74.60;;;;;;5041636;28;20978;-72
2023/06/13 12:38:33;;;;;;;3.07;2.77;;;26.50;76.20;;;;;;5038893;28;20488;-72
2023/06/13 12:41:14;;;;;;;4.13;3.10;;;26.60;78.30;;;;;;5041647;28;20588;-72
2023/06/13 12:43:45;;;;;;;3.23;2.87;;;26.50;73.60;;;;;;5032294;28;20461;-73
2023/06/13 12:46:14;;;;;;;4.63;2.93;;;26.50;71.30;;;;;;5051889;28;20966;-72
2023/06/13 12:48:44;;;;;;;3.23;2.30;;;26.50;74.00;;;;;;5051720;28;20485;-72
2023/06/13 12:51:27;;;;;;;2.70;2.50;;;26.60;78.30;;;;;;5051764;28;20496;-71
2023/06/13 12:54:09;;;;;;;3.13;2.83;;;26.70;77.80;;;;;;5051011;28;20566;-74
2023/06/13 12:56:38;;;;;;;3.33;3.03;;;26.80;74.50;;;;;;5052029;28;20507;-72
2023/06/13 12:59:07;;;;;;;4.63;3.20;;;26.80;70.90;;;;;;5043758;28;20478;-71